Aérodrome :
LOGIN :

S'inscrire | Disclaimer

   EN    FR    IT 

 










Légende :    VFR   VFR Marginal   IFR   IFR Intensif   IFR Très Intensif
Visi : 
Plafond : 
>= 8 km
>= 3000ft
5 à 8 km
1000 à 3000 ft
1500m à 5 km
500 à 1000 ft
800 à 1500m
200 à 500 ft
< 800m
< 200 ft
Symboles :   Orages  Brouillard  Fortes neiges  Fortes précipitations  Vent > 20 kt
SIGMETs :   Divers  Orages  Givrage  Turbulence  Onde Orograph.  Cendres Volcan.







- Altitude de l'aérodrome : 325 ft
- Code IATA : BES
- Voir les cartes d'approche


LFRB - Brest

DERNIER METAR :
  • 200430Z AUTO 32004KT 8000 FEW041 12/12 Q1018 NOSIG

METARs EXPIRÉS :
  • 200400Z AUTO 31003KT 9000 FEW041 12/11 Q1017 NOSIG
  • 200330Z AUTO 31003KT CAVOK 12/12 Q1018 NOSIG
  • 200300Z AUTO 31003KT CAVOK 12/12 Q1018 NOSIG
  • 200230Z AUTO 31004KT CAVOK 13/12 Q1018 NOSIG
  • 200200Z AUTO 30004KT CAVOK 13/12 Q1018 NOSIG

TAF TAF LFRB
Valide du 20 à 00h jusqu'au 21 à 06h UTC


192300Z 2000/2106 33005KT CAVOK
BECMG 2018/2021 BKN013
BECMG 2021/2024 OVC008
TEMPO 2100/2106 4000 RA OVC006 SCT012TCU
ATIS : +33 2 98 32 02 71
Pas de NOTAMs connus pour ce terrain.



MET'MAP, la Météo Aéronautique d'un coup d'oeil ! - Copyright ORBIFLY Décembre 2007 - Disclaimer

ORBIFLY MET'MAP TEAM :

Programmation & Développement : Alexandra Zaïnal
Conception & Développement : Baudouin d'Aumeries
Co-Programmation & Développement : Marc-Olivier Méhu
Soutien technique & logistique : Manuel Goepfert

Contact : metmap@orbifly.com




SOURCES & CREDITS :

   NOAA